sensor_id;sensor_type;location;lat;lon;timestamp;pressure;altitude;pressure_sealevel;temperature;humidity
36092;BME280;22147;52.388;13.390;2023-05-13T00:00:26;101413.94;;;11.81;78.30
36092;BME280;22147;52.388;13.390;2023-05-13T00:02:56;101420.75;;;11.75;78.05
36092;BME280;22147;52.388;13.390;2023-05-13T00:05:26;101421.88;;;11.74;78.04
36092;BME280;22147;52.388;13.390;2023-05-13T00:07:56;101414.38;;;11.75;78.36
36092;BME280;22147;52.388;13.390;2023-05-13T00:10:30;101422.22;;;11.73;78.83
36092;BME280;22147;52.388;13.390;2023-05-13T00:13:01;101412.03;;;11.68;78.73
36092;BME280;22147;52.388;13.390;2023-05-13T00:15:31;101421.03;;;11.65;79.14
36092;BME280;22147;52.388;13.390;2023-05-13T00:18:01;101418.41;;;11.60;78.34
36092;BME280;22147;52.388;13.390;2023-05-13T00:20:31;101416.75;;;11.59;79.33
36092;BME280;22147;52.388;13.390;2023-05-13T00:23:02;101421.09;;;11.51;79.64
36092;BME280;22147;52.388;13.390;2023-05-13T00:25:32;101415.03;;;11.49;80.26
36092;BME280;22147;52.388;13.390;2023-05-13T00:28:03;101412.91;;;11.46;79.92
36092;BME280;22147;52.388;13.390;2023-05-13T00:30:34;101420.53;;;11.40;80.59
36092;BME280;22147;52.388;13.390;2023-05-13T00:33:04;101421.69;;;11.39;81.11
36092;BME280;22147;52.388;13.390;2023-05-13T00:35:36;101426.44;;;11.39;80.89
36092;BME280;22147;52.388;13.390;2023-05-13T00:38:07;101428.72;;;11.37;81.19
36092;BME280;22147;52.388;13.390;2023-05-13T00:40:38;101431.16;;;11.38;80.97
36092;BME280;22147;52.388;13.390;2023-05-13T00:43:08;101424.78;;;11.38;80.93
36092;BME280;22147;52.388;13.390;2023-05-13T00:45:38;101434.28;;;11.37;80.99
36092;BME280;22147;52.388;13.390;2023-05-13T00:48:09;101431.31;;;11.33;80.86
36092;BME280;22147;52.388;13.390;2023-05-13T00:50:39;101434.59;;;11.35;81.49
36092;BME280;22147;52.388;13.390;2023-05-13T00:53:15;101432.94;;;11.34;81.46
36092;BME280;22147;52.388;13.390;2023-05-13T00:55:46;101431.16;;;11.38;81.38
36092;BME280;22147;52.388;13.390;2023-05-13T00:58:16;101432.81;;;11.39;80.46
36092;BME280;22147;52.388;13.390;2023-05-13T01:01:37;101444.44;;;11.41;81.15
36092;BME280;22147;52.388;13.390;2023-05-13T01:13:29;101446.28;;;11.46;80.26
36092;BME280;22147;52.388;13.390;2023-05-13T01:16:30;101441.66;;;11.41;80.49
36092;BME280;22147;52.388;13.390;2023-05-13T01:19:31;101444.25;;;11.38;80.93
36092;BME280;22147;52.388;13.390;2023-05-13T01:22:08;101449.63;;;11.34;81.28
36092;BME280;22147;52.388;13.390;2023-05-13T01:24:38;101461.69;;;11.30;81.22
36092;BME280;22147;52.388;13.390;2023-05-13T01:27:08;101458.72;;;11.26;81.51
36092;BME280;22147;52.388;13.390;2023-05-13T01:29:38;101454.09;;;11.21;82.17
36092;BME280;22147;52.388;13.390;2023-05-13T01:32:10;101463.88;;;11.19;82.96
36092;BME280;22147;52.388;13.390;2023-05-13T01:34:43;101466.50;;;11.15;82.79
36092;BME280;22147;52.388;13.390;2023-05-13T01:37:14;101469.47;;;11.19;82.59
36092;BME280;22147;52.388;13.390;2023-05-13T01:39:46;101461.41;;;11.17;82.00
36092;BME280;22147;52.388;13.390;2023-05-13T01:42:17;101467.13;;;11.12;82.21
36092;BME280;22147;52.388;13.390;2023-05-13T01:44:45;101473.91;;;11.06;82.68
36092;BME280;22147;52.388;13.390;2023-05-13T01:47:12;101464.88;;;11.00;82.52
36092;BME280;22147;52.388;13.390;2023-05-13T01:49:42;101473.63;;;10.94;83.12
36092;BME280;22147;52.388;13.390;2023-05-13T01:52:12;101463.47;;;10.89;83.65
36092;BME280;22147;52.388;13.390;2023-05-13T01:54:42;101471.81;;;10.89;83.13
36092;BME280;22147;52.388;13.390;2023-05-13T01:57:12;101468.22;;;10.89;83.38
36092;BME280;22147;52.388;13.390;2023-05-13T01:59:42;101468.72;;;10.91;83.88
36092;BME280;22147;52.388;13.390;2023-05-13T02:02:12;101468.81;;;10.86;83.67
36092;BME280;22147;52.388;13.390;2023-05-13T02:04:42;101477.91;;;10.77;83.72
36092;BME280;22147;52.388;13.390;2023-05-13T02:07:11;101471.00;;;10.75;84.34
36092;BME280;22147;52.388;13.390;2023-05-13T02:09:41;101469.97;;;10.71;83.78
36092;BME280;22147;52.388;13.390;2023-05-13T02:12:12;101473.38;;;10.68;85.54
36092;BME280;22147;52.388;13.390;2023-05-13T02:14:46;101470.91;;;10.66;85.56
36092;BME280;22147;52.388;13.390;2023-05-13T02:17:16;101482.34;;;10.65;85.95
36092;BME280;22147;52.388;13.390;2023-05-13T02:19:46;101482.34;;;10.65;86.10
36092;BME280;22147;52.388;13.390;2023-05-13T02:22:17;101479.88;;;10.63;85.86
36092;BME280;22147;52.388;13.390;2023-05-13T02:24:47;101479.88;;;10.63;85.30
36092;BME280;22147;52.388;13.390;2023-05-13T02:27:17;101477.09;;;10.63;86.04
36092;BME280;22147;52.388;13.390;2023-05-13T02:29:48;101477.19;;;10.58;86.10
36092;BME280;22147;52.388;13.390;2023-05-13T02:32:18;101481.94;;;10.57;86.73
36092;BME280;22147;52.388;13.390;2023-05-13T02:34:48;101479.97;;;10.58;86.74
36092;BME280;22147;52.388;13.390;2023-05-13T02:37:18;101481.94;;;10.57;86.73
36092;BME280;22147;52.388;13.390;2023-05-13T02:39:48;101481.63;;;10.59;86.94
36092;BME280;22147;52.388;13.390;2023-05-13T02:42:18;101478.66;;;10.55;86.89
36092;BME280;22147;52.388;13.390;2023-05-13T02:44:47;101482.56;;;10.54;87.14
36092;BME280;22147;52.388;13.390;2023-05-13T02:47:18;101472.06;;;10.51;86.96
36092;BME280;22147;52.388;13.390;2023-05-13T02:49:46;101476.81;;;10.51;87.31
36092;BME280;22147;52.388;13.390;2023-05-13T02:52:15;101484.63;;;10.49;86.66
36092;BME280;22147;52.388;13.390;2023-05-13T02:54:43;101485.25;;;10.46;86.82
36092;BME280;22147;52.388;13.390;2023-05-13T02:57:12;101489.44;;;10.43;87.34
36092;BME280;22147;52.388;13.390;2023-05-13T02:59:40;101484.81;;;10.38;87.82
36092;BME280;22147;52.388;13.390;2023-05-13T03:02:10;101487.09;;;10.36;87.82
36092;BME280;22147;52.388;13.390;2023-05-13T03:04:37;101486.25;;;10.36;87.35
36092;BME280;22147;52.388;13.390;2023-05-13T03:07:10;101488.22;;;10.35;88.20
36092;BME280;22147;52.388;13.390;2023-05-13T03:09:40;101493.16;;;10.38;87.13
36092;BME280;22147;52.388;13.390;2023-05-13T03:12:12;101495.63;;;10.40;87.79
36092;BME280;22147;52.388;13.390;2023-05-13T03:14:45;101497.88;;;10.38;87.16
36092;BME280;22147;52.388;13.390;2023-05-13T03:17:15;101500.38;;;10.39;86.36
36092;BME280;22147;52.388;13.390;2023-05-13T03:19:45;101501.47;;;10.38;86.41
36092;BME280;22147;52.388;13.390;2023-05-13T03:22:16;101493.44;;;10.37;86.37
36092;BME280;22147;52.388;13.390;2023-05-13T03:24:46;101491.53;;;10.37;87.00
36092;BME280;22147;52.388;13.390;2023-05-13T03:27:17;101497.38;;;10.36;86.91
36092;BME280;22147;52.388;13.390;2023-05-13T03:29:47;101495.53;;;10.31;87.36
36092;BME280;22147;52.388;13.390;2023-05-13T03:32:18;101499.41;;;10.30;86.75
36092;BME280;22147;52.388;13.390;2023-05-13T03:34:48;101497.53;;;10.26;86.95
36092;BME280;22147;52.388;13.390;2023-05-13T03:37:18;101501.75;;;10.23;87.05
36092;BME280;22147;52.388;13.390;2023-05-13T03:39:49;101500.19;;;10.17;87.77
36092;BME280;22147;52.388;13.390;2023-05-13T03:42:20;101497.72;;;10.15;87.52
36092;BME280;22147;52.388;13.390;2023-05-13T03:44:52;101502.47;;;10.15;87.81
36092;BME280;22147;52.388;13.390;2023-05-13T03:47:22;101499.16;;;10.13;87.58
36092;BME280;22147;52.388;13.390;2023-05-13T03:49:50;101503.69;;;10.09;88.13
36092;BME280;22147;52.388;13.390;2023-05-13T03:52:18;101507.59;;;10.08;87.81
36092;BME280;22147;52.388;13.390;2023-05-13T03:54:47;101507.59;;;10.08;87.98
36092;BME280;22147;52.388;13.390;2023-05-13T03:57:16;101510.69;;;10.06;87.19
36092;BME280;22147;52.388;13.390;2023-05-13T03:59:44;101514.50;;;10.10;86.79
36092;BME280;22147;52.388;13.390;2023-05-13T04:02:12;101522.72;;;10.15;87.34
36092;BME280;22147;52.388;13.390;2023-05-13T04:04:41;101518.50;;;10.18;87.90
36092;BME280;22147;52.388;13.390;2023-05-13T04:07:09;101525.69;;;10.19;88.43
36092;BME280;22147;52.388;13.390;2023-05-13T04:09:38;101530.75;;;10.17;87.70
36092;BME280;22147;52.388;13.390;2023-05-13T04:12:07;101519.84;;;10.21;87.35
36092;BME280;22147;52.388;13.390;2023-05-13T04:14:41;101530.34;;;10.24;88.34
36092;BME280;22147;52.388;13.390;2023-05-13T04:17:11;101541.34;;;10.29;87.29
36092;BME280;22147;52.388;13.390;2023-05-13T04:19:41;101543.25;;;10.33;86.12
36092;BME280;22147;52.388;13.390;2023-05-13T04:22:11;101540.66;;;10.37;87.16
36092;BME280;22147;52.388;13.390;2023-05-13T04:24:41;101545.31;;;10.42;85.76
36092;BME280;22147;52.388;13.390;2023-05-13T04:27:12;101542.13;;;10.48;85.21
36092;BME280;22147;52.388;13.390;2023-05-13T04:29:42;101544.19;;;10.56;84.43
36092;BME280;22147;52.388;13.390;2023-05-13T04:32:12;101549.94;;;10.60;84.21
36092;BME280;22147;52.388;13.390;2023-05-13T04:34:52;101551.28;;;10.63;83.80
36092;BME280;22147;52.388;13.390;2023-05-13T04:37:24;101550.16;;;10.64;84.63
36092;BME280;22147;52.388;13.390;2023-05-13T04:39:55;101554.25;;;10.66;84.91
36092;BME280;22147;52.388;13.390;2023-05-13T04:42:25;101559.81;;;10.66;84.78
36092;BME280;22147;52.388;13.390;2023-05-13T04:44:55;101561.06;;;10.74;82.99
36092;BME280;22147;52.388;13.390;2023-05-13T04:47:26;101570.31;;;10.83;82.08
36092;BME280;22147;52.388;13.390;2023-05-13T04:49:56;101565.69;;;10.92;82.68
36092;BME280;22147;52.388;13.390;2023-05-13T04:52:26;101567.22;;;10.98;81.48
36092;BME280;22147;52.388;13.390;2023-05-13T04:54:57;101566.97;;;11.09;81.31
36092;BME280;22147;52.388;13.390;2023-05-13T04:57:27;101566.25;;;11.17;79.95
36092;BME280;22147;52.388;13.390;2023-05-13T04:59:57;101568.00;;;11.27;80.10
36092;BME280;22147;52.388;13.390;2023-05-13T05:02:27;101568.06;;;11.35;80.08
36092;BME280;22147;52.388;13.390;2023-05-13T05:04:58;101567.34;;;11.44;80.88
36092;BME280;22147;52.388;13.390;2023-05-13T05:07:29;101571.00;;;11.53;80.08
36092;BME280;22147;52.388;13.390;2023-05-13T05:10:00;101576.03;;;11.65;79.72
36092;BME280;22147;52.388;13.390;2023-05-13T05:12:30;101579.50;;;11.70;78.63
36092;BME280;22147;52.388;13.390;2023-05-13T05:15:01;101582.22;;;11.84;78.02
36092;BME280;22147;52.388;13.390;2023-05-13T05:17:31;101582.50;;;11.96;78.74
36092;BME280;22147;52.388;13.390;2023-05-13T05:20:03;101575.03;;;12.06;77.65
36092;BME280;22147;52.388;13.390;2023-05-13T05:22:33;101583.31;;;12.19;77.73
36092;BME280;22147;52.388;13.390;2023-05-13T05:25:05;101582.22;;;12.29;75.75
36092;BME280;22147;52.388;13.390;2023-05-13T05:27:35;101587.06;;;12.46;74.12
36092;BME280;22147;52.388;13.390;2023-05-13T05:30:07;101589.59;;;12.65;75.35
36092;BME280;22147;52.388;13.390;2023-05-13T05:32:39;101581.00;;;12.84;74.46
36092;BME280;22147;52.388;13.390;2023-05-13T05:35:09;101584.00;;;12.96;73.17
36092;BME280;22147;52.388;13.390;2023-05-13T05:37:39;101585.34;;;13.16;70.38
36092;BME280;22147;52.388;13.390;2023-05-13T05:40:10;101586.00;;;13.22;69.30
36092;BME280;22147;52.388;13.390;2023-05-13T05:42:41;101582.94;;;13.41;69.84
36092;BME280;22147;52.388;13.390;2023-05-13T05:45:11;101585.13;;;13.61;68.60
36092;BME280;22147;52.388;13.390;2023-05-13T05:47:41;101591.34;;;13.76;66.63
36092;BME280;22147;52.388;13.390;2023-05-13T05:50:11;101597.25;;;13.92;66.04
36092;BME280;22147;52.388;13.390;2023-05-13T05:52:42;101603.81;;;13.96;64.73
36092;BME280;22147;52.388;13.390;2023-05-13T05:55:12;101596.72;;;14.07;64.13
36092;BME280;22147;52.388;13.390;2023-05-13T05:57:40;101601.66;;;14.19;61.74
36092;BME280;22147;52.388;13.390;2023-05-13T06:00:09;101596.81;;;14.45;63.49
36092;BME280;22147;52.388;13.390;2023-05-13T06:02:37;101601.13;;;14.81;61.98
36092;BME280;22147;52.388;13.390;2023-05-13T06:05:06;101607.44;;;15.08;60.61
36092;BME280;22147;52.388;13.390;2023-05-13T06:07:37;101601.00;;;15.37;60.23
36092;BME280;22147;52.388;13.390;2023-05-13T06:10:06;101606.00;;;15.53;57.81
36092;BME280;22147;52.388;13.390;2023-05-13T06:12:34;101605.66;;;15.54;56.37
36092;BME280;22147;52.388;13.390;2023-05-13T06:15:02;101603.66;;;15.55;56.54
36092;BME280;22147;52.388;13.390;2023-05-13T06:17:34;101601.03;;;16.00;56.71
36092;BME280;22147;52.388;13.390;2023-05-13T06:20:03;101601.00;;;16.21;55.58
36092;BME280;22147;52.388;13.390;2023-05-13T06:22:31;101599.81;;;16.22;54.17
36092;BME280;22147;52.388;13.390;2023-05-13T06:24:59;101606.84;;;16.28;53.90
36092;BME280;22147;52.388;13.390;2023-05-13T06:27:28;101596.22;;;16.34;52.80
36092;BME280;22147;52.388;13.390;2023-05-13T06:29:56;101604.06;;;16.41;53.77
36092;BME280;22147;52.388;13.390;2023-05-13T06:32:24;101594.75;;;16.61;52.66
36092;BME280;22147;52.388;13.390;2023-05-13T06:34:53;101597.56;;;16.74;50.22
36092;BME280;22147;52.388;13.390;2023-05-13T06:37:21;101604.03;;;16.86;50.79
36092;BME280;22147;52.388;13.390;2023-05-13T06:39:50;101596.78;;;17.10;48.74
36092;BME280;22147;52.388;13.390;2023-05-13T06:42:18;101597.22;;;17.49;49.92
36092;BME280;22147;52.388;13.390;2023-05-13T06:44:47;101591.34;;;17.42;48.31
36092;BME280;22147;52.388;13.390;2023-05-13T06:47:15;101580.53;;;17.28;50.09
36092;BME280;22147;52.388;13.390;2023-05-13T06:49:43;101586.75;;;17.62;46.69
36092;BME280;22147;52.388;13.390;2023-05-13T06:52:12;101584.06;;;18.06;46.96
36092;BME280;22147;52.388;13.390;2023-05-13T06:54:40;101578.78;;;18.48;45.66
36092;BME280;22147;52.388;13.390;2023-05-13T06:57:09;101574.34;;;18.63;43.88
36092;BME280;22147;52.388;13.390;2023-05-13T06:59:37;101580.97;;;19.03;45.23
36092;BME280;22147;52.388;13.390;2023-05-13T07:02:06;101579.47;;;19.25;44.37
36092;BME280;22147;52.388;13.390;2023-05-13T07:04:38;101578.41;;;19.14;43.17
36092;BME280;22147;52.388;13.390;2023-05-13T07:07:08;101575.88;;;19.44;44.15
36092;BME280;22147;52.388;13.390;2023-05-13T07:09:39;101575.94;;;19.47;42.55
36092;BME280;22147;52.388;13.390;2023-05-13T07:12:11;101571.06;;;19.64;42.09
36092;BME280;22147;52.388;13.390;2023-05-13T07:14:44;101574.50;;;19.92;41.74
36092;BME280;22147;52.388;13.390;2023-05-13T07:17:14;101566.97;;;19.61;38.20
36092;BME280;22147;52.388;13.390;2023-05-13T07:19:44;101571.38;;;19.23;38.68
36092;BME280;22147;52.388;13.390;2023-05-13T07:22:14;101569.19;;;19.32;40.91
36092;BME280;22147;52.388;13.390;2023-05-13T07:24:44;101562.44;;;19.37;39.63
36092;BME280;22147;52.388;13.390;2023-05-13T07:27:14;101553.69;;;19.07;38.16
36092;BME280;22147;52.388;13.390;2023-05-13T07:29:45;101566.25;;;18.94;39.06
36092;BME280;22147;52.388;13.390;2023-05-13T07:32:15;101565.59;;;18.68;37.73
36092;BME280;22147;52.388;13.390;2023-05-13T07:34:45;101569.25;;;19.01;40.21
36092;BME280;22147;52.388;13.390;2023-05-13T07:37:15;101554.56;;;19.27;39.18
36092;BME280;22147;52.388;13.390;2023-05-13T07:39:45;101558.84;;;19.21;38.37
36092;BME280;22147;52.388;13.390;2023-05-13T07:42:16;101557.06;;;19.12;38.17
36092;BME280;22147;52.388;13.390;2023-05-13T07:44:46;101560.22;;;19.66;39.48
36092;BME280;22147;52.388;13.390;2023-05-13T07:47:17;101555.72;;;19.81;37.46
36092;BME280;22147;52.388;13.390;2023-05-13T07:49:45;101560.56;;;19.80;38.76
36092;BME280;22147;52.388;13.390;2023-05-13T07:52:13;101548.72;;;19.36;38.58
36092;BME280;22147;52.388;13.390;2023-05-13T07:54:42;101548.72;;;19.36;39.11
36092;BME280;22147;52.388;13.390;2023-05-13T07:57:10;101552.31;;;19.52;37.85
36092;BME280;22147;52.388;13.390;2023-05-13T07:59:39;101552.56;;;19.82;37.18
36092;BME280;22147;52.388;13.390;2023-05-13T08:02:11;101548.38;;;19.96;35.75
36092;BME280;22147;52.388;13.390;2023-05-13T08:04:39;101544.34;;;20.16;36.96
36092;BME280;22147;52.388;13.390;2023-05-13T08:07:09;101559.16;;;19.90;35.02
36092;BME280;22147;52.388;13.390;2023-05-13T08:09:40;101558.53;;;19.42;35.60
36092;BME280;22147;52.388;13.390;2023-05-13T08:12:12;101553.91;;;19.53;35.44
36092;BME280;22147;52.388;13.390;2023-05-13T08:14:44;101556.28;;;19.51;36.42
36092;BME280;22147;52.388;13.390;2023-05-13T08:17:15;101569.22;;;19.91;37.59
36092;BME280;22147;52.388;13.390;2023-05-13T08:19:48;101565.47;;;20.26;37.21
36092;BME280;22147;52.388;13.390;2023-05-13T08:22:18;101567.63;;;20.56;35.97
36092;BME280;22147;52.388;13.390;2023-05-13T08:24:49;101563.28;;;20.16;36.99
36092;BME280;22147;52.388;13.390;2023-05-13T08:27:19;101575.31;;;19.93;37.55
36092;BME280;22147;52.388;13.390;2023-05-13T08:29:52;101572.06;;;19.71;38.07
36092;BME280;22147;52.388;13.390;2023-05-13T08:32:20;101572.69;;;20.04;36.89
36092;BME280;22147;52.388;13.390;2023-05-13T08:34:50;101572.16;;;19.75;36.08
36092;BME280;22147;52.388;13.390;2023-05-13T08:37:20;101570.59;;;19.78;36.92
36092;BME280;22147;52.388;13.390;2023-05-13T08:39:50;101569.84;;;20.23;36.72
36092;BME280;22147;52.388;13.390;2023-05-13T08:44:52;101570.63;;;20.89;38.27
36092;BME280;22147;52.388;13.390;2023-05-13T08:47:51;101573.94;;;20.68;36.70
36092;BME280;22147;52.388;13.390;2023-05-13T08:50:27;101571.81;;;20.42;36.40
36092;BME280;22147;52.388;13.390;2023-05-13T08:52:58;101568.66;;;20.67;37.26
36092;BME280;22147;52.388;13.390;2023-05-13T08:55:29;101573.63;;;20.54;36.64
36092;BME280;22147;52.388;13.390;2023-05-13T08:57:58;101567.16;;;20.73;39.37
36092;BME280;22147;52.388;13.390;2023-05-13T09:00:28;101570.75;;;21.23;37.43
36092;BME280;22147;52.388;13.390;2023-05-13T09:02:58;101567.53;;;21.51;38.33
36092;BME280;22147;52.388;13.390;2023-05-13T09:05:28;101562.31;;;21.27;35.30
36092;BME280;22147;52.388;13.390;2023-05-13T09:08:08;101571.09;;;20.68;35.05
36092;BME280;22147;52.388;13.390;2023-05-13T09:10:37;101568.47;;;20.79;36.65
36092;BME280;22147;52.388;13.390;2023-05-13T09:13:07;101565.63;;;20.79;36.17
36092;BME280;22147;52.388;13.390;2023-05-13T09:15:36;101562.97;;;21.17;36.82
36092;BME280;22147;52.388;13.390;2023-05-13T09:18:10;101568.41;;;21.55;36.90
36092;BME280;22147;52.388;13.390;2023-05-13T09:20:42;101561.19;;;21.31;34.81
36092;BME280;22147;52.388;13.390;2023-05-13T09:23:12;101568.09;;;20.81;34.15
36092;BME280;22147;52.388;13.390;2023-05-13T09:25:44;101560.47;;;20.85;36.22
36092;BME280;22147;52.388;13.390;2023-05-13T09:28:14;101560.09;;;20.86;32.94
36092;BME280;22147;52.388;13.390;2023-05-13T09:30:53;101539.41;;;21.05;31.75
36092;BME280;22147;52.388;13.390;2023-05-13T09:33:29;101552.59;;;21.24;32.61
36092;BME280;22147;52.388;13.390;2023-05-13T09:36:03;101546.78;;;21.13;30.98
36092;BME280;22147;52.388;13.390;2023-05-13T09:38:34;101549.63;;;21.13;31.35
36092;BME280;22147;52.388;13.390;2023-05-13T09:41:06;101547.38;;;21.53;31.27
36092;BME280;22147;52.388;13.390;2023-05-13T09:43:38;101551.50;;;21.59;30.21
36092;BME280;22147;52.388;13.390;2023-05-13T09:46:09;101557.22;;;21.36;30.65
36092;BME280;22147;52.388;13.390;2023-05-13T09:48:42;101548.47;;;21.45;31.31
36092;BME280;22147;52.388;13.390;2023-05-13T09:51:11;101542.59;;;21.30;29.93
36092;BME280;22147;52.388;13.390;2023-05-13T09:53:46;101543.84;;;21.33;30.01
36092;BME280;22147;52.388;13.390;2023-05-13T09:56:21;101546.72;;;21.63;29.52
36092;BME280;22147;52.388;13.390;2023-05-13T09:58:52;101535.09;;;22.09;29.68
36092;BME280;22147;52.388;13.390;2023-05-13T10:01:25;101529.13;;;22.18;30.54
36092;BME280;22147;52.388;13.390;2023-05-13T10:03:57;101538.03;;;22.20;29.90
36092;BME280;22147;52.388;13.390;2023-05-13T10:06:29;101532.88;;;22.26;30.18
36092;BME280;22147;52.388;13.390;2023-05-13T10:09:01;101529.47;;;22.50;29.93
36092;BME280;22147;52.388;13.390;2023-05-13T10:11:33;101532.22;;;22.40;28.21
36092;BME280;22147;52.388;13.390;2023-05-13T10:14:05;101531.88;;;22.48;29.07
36092;BME280;22147;52.388;13.390;2023-05-13T10:16:37;101527.50;;;22.17;28.24
36092;BME280;22147;52.388;13.390;2023-05-13T10:19:08;101535.78;;;21.95;28.82
36092;BME280;22147;52.388;13.390;2023-05-13T10:21:40;101529.31;;;22.32;29.32
36092;BME280;22147;52.388;13.390;2023-05-13T10:24:11;101526.44;;;22.77;29.95
36092;BME280;22147;52.388;13.390;2023-05-13T10:26:41;101521.53;;;22.70;30.10
36092;BME280;22147;52.388;13.390;2023-05-13T10:29:13;101530.78;;;22.64;27.02
36092;BME280;22147;52.388;13.390;2023-05-13T10:31:45;101524.78;;;22.72;27.93
36092;BME280;22147;52.388;13.390;2023-05-13T10:34:16;101523.31;;;22.38;25.80
36092;BME280;22147;52.388;13.390;2023-05-13T10:45:49;101513.69;;;22.46;28.39
36092;BME280;22147;52.388;13.390;2023-05-13T10:48:25;101513.47;;;22.72;25.92
36092;BME280;22147;52.388;13.390;2023-05-13T10:51:03;101522.75;;;22.69;24.54
36092;BME280;22147;52.388;13.390;2023-05-13T10:53:49;101511.75;;;22.57;26.06
36092;BME280;22147;52.388;13.390;2023-05-13T10:56:22;101505.91;;;22.39;24.95
36092;BME280;22147;52.388;13.390;2023-05-13T10:59:11;101529.06;;;22.11;25.71
36092;BME280;22147;52.388;13.390;2023-05-13T11:01:41;101524.38;;;22.26;24.79
36092;BME280;22147;52.388;13.390;2023-05-13T11:04:19;101518.56;;;21.74;24.85
36092;BME280;22147;52.388;13.390;2023-05-13T11:06:51;101514.38;;;21.98;25.56
36092;BME280;22147;52.388;13.390;2023-05-13T11:11:57;101514.16;;;22.17;25.53
36092;BME280;22147;52.388;13.390;2023-05-13T11:14:30;101507.41;;;21.88;26.26
36092;BME280;22147;52.388;13.390;2023-05-13T11:19:48;101500.88;;;22.22;25.88
36092;BME280;22147;52.388;13.390;2023-05-13T11:22:22;101500.69;;;22.41;27.11
36092;BME280;22147;52.388;13.390;2023-05-13T11:25:25;101497.00;;;22.33;27.26
36092;BME280;22147;52.388;13.390;2023-05-13T11:27:57;101504.66;;;21.95;26.05
36092;BME280;22147;52.388;13.390;2023-05-13T11:30:27;101499.34;;;21.90;27.08
36092;BME280;22147;52.388;13.390;2023-05-13T11:32:58;101505.00;;;21.90;27.27
36092;BME280;22147;52.388;13.390;2023-05-13T11:35:31;101493.38;;;21.62;26.78
36092;BME280;22147;52.388;13.390;2023-05-13T11:38:02;101494.81;;;21.82;28.31
36092;BME280;22147;52.388;13.390;2023-05-13T11:45:09;101486.97;;;22.02;26.66
36092;BME280;22147;52.388;13.390;2023-05-13T11:47:39;101500.56;;;21.89;26.63
36092;BME280;22147;52.388;13.390;2023-05-13T11:50:29;101489.69;;;21.91;25.52
36092;BME280;22147;52.388;13.390;2023-05-13T11:53:01;101492.50;;;21.91;27.02
36092;BME280;22147;52.388;13.390;2023-05-13T11:55:33;101489.69;;;21.91;27.24
36092;BME280;22147;52.388;13.390;2023-05-13T11:58:06;101493.94;;;21.74;25.69
36092;BME280;22147;52.388;13.390;2023-05-13T12:00:36;101480.28;;;21.46;26.87
36092;BME280;22147;52.388;13.390;2023-05-13T12:03:11;101486.78;;;21.50;26.09
36092;BME280;22147;52.388;13.390;2023-05-13T12:05:42;101478.88;;;21.63;27.54
36092;BME280;22147;52.388;13.390;2023-05-13T12:08:13;101477.41;;;21.43;26.25
36092;BME280;22147;52.388;13.390;2023-05-13T12:10:44;101477.63;;;21.61;26.56
36092;BME280;22147;52.388;13.390;2023-05-13T12:13:14;101475.53;;;21.91;27.00
36092;BME280;22147;52.388;13.390;2023-05-13T12:15:45;101476.97;;;22.12;27.52
36092;BME280;22147;52.388;13.390;2023-05-13T12:18:16;101481.78;;;22.11;26.76
36092;BME280;22147;52.388;13.390;2023-05-13T12:20:46;101478.56;;;22.13;27.21
36092;BME280;22147;52.388;13.390;2023-05-13T12:23:17;101483.09;;;22.21;26.89
36092;BME280;22147;52.388;13.390;2023-05-13T12:25:48;101476.16;;;22.15;26.81
36092;BME280;22147;52.388;13.390;2023-05-13T12:28:23;101479.44;;;21.80;26.28
36092;BME280;22147;52.388;13.390;2023-05-13T12:30:55;101476.06;;;21.63;29.79
36092;BME280;22147;52.388;13.390;2023-05-13T12:36:25;101478.00;;;22.34;27.10
36092;BME280;22147;52.388;13.390;2023-05-13T12:39:09;101483.66;;;21.96;27.06
36092;BME280;22147;52.388;13.390;2023-05-13T12:41:40;101481.84;;;21.44;27.58
36092;BME280;22147;52.388;13.390;2023-05-13T12:44:14;101478.16;;;21.09;27.69
36092;BME280;22147;52.388;13.390;2023-05-13T12:46:53;101478.53;;;21.08;29.28
36092;BME280;22147;52.388;13.390;2023-05-13T12:49:25;101472.75;;;21.58;30.09
36092;BME280;22147;52.388;13.390;2023-05-13T12:51:54;101475.06;;;21.86;28.10
36092;BME280;22147;52.388;13.390;2023-05-13T12:54:22;101482.38;;;21.87;27.79
36092;BME280;22147;52.388;13.390;2023-05-13T12:56:51;101478.31;;;22.25;27.77
36092;BME280;22147;52.388;13.390;2023-05-13T12:59:19;101477.31;;;22.51;27.79
36092;BME280;22147;52.388;13.390;2023-05-13T13:01:52;101468.69;;;22.33;27.61
36092;BME280;22147;52.388;13.390;2023-05-13T13:04:19;101466.38;;;22.50;28.57
36092;BME280;22147;52.388;13.390;2023-05-13T13:06:47;101468.63;;;22.82;27.33
36092;BME280;22147;52.388;13.390;2023-05-13T13:09:17;101470.09;;;23.16;28.16
36092;BME280;22147;52.388;13.390;2023-05-13T13:11:47;101467.81;;;22.26;27.99
36092;BME280;22147;52.388;13.390;2023-05-13T13:14:17;101475.91;;;21.52;28.32
36092;BME280;22147;52.388;13.390;2023-05-13T13:16:47;101469.44;;;21.22;30.28
36092;BME280;22147;52.388;13.390;2023-05-13T13:19:17;101477.47;;;21.46;29.73
36092;BME280;22147;52.388;13.390;2023-05-13T13:21:47;101471.47;;;21.89;30.55
36092;BME280;22147;52.388;13.390;2023-05-13T13:24:16;101461.72;;;22.24;28.45
36092;BME280;22147;52.388;13.390;2023-05-13T13:26:47;101465.50;;;22.39;30.72
36092;BME280;22147;52.388;13.390;2023-05-13T13:29:18;101473.63;;;22.44;29.23
36092;BME280;22147;52.388;13.390;2023-05-13T13:31:48;101468.13;;;22.69;29.62
36092;BME280;22147;52.388;13.390;2023-05-13T13:34:18;101470.53;;;23.22;29.53